createdAt,value
2019-01-05T00:00:26.965Z,2.09
2019-01-05T00:03:17.543Z,2.14
2019-01-05T00:06:16.076Z,2.25
2019-01-05T00:09:04.875Z,2.14
2019-01-05T00:11:57.439Z,2.14
2019-01-05T00:14:47.270Z,2.02
2019-01-05T00:17:46.507Z,2.11
2019-01-05T00:20:36.282Z,2.19
2019-01-05T00:23:25.227Z,2.24
2019-01-05T00:26:24.426Z,2.17
2019-01-05T00:29:14.453Z,2.13
2019-01-05T00:32:58.383Z,2.13
2019-01-05T00:36:21.062Z,2.20
2019-01-05T00:39:11.044Z,2.18
2019-01-05T00:42:00.809Z,2.16
2019-01-05T00:44:51.271Z,2.18
2019-01-05T00:47:54.738Z,2.17
2019-01-05T00:50:52.825Z,2.25
2019-01-05T00:53:49.007Z,2.24
2019-01-05T00:56:50.518Z,2.26
2019-01-05T00:59:41.265Z,2.08
2019-01-05T01:02:34.902Z,2.11
2019-01-05T01:05:23.618Z,2.12
2019-01-05T01:08:19.982Z,2.25
2019-01-05T01:11:08.107Z,2.25
2019-01-05T01:13:56.856Z,2.23
2019-01-05T01:16:45.738Z,2.19
2019-01-05T01:19:28.329Z,2.14
2019-01-05T01:22:17.502Z,2.19
2019-01-05T01:25:25.166Z,2.15
2019-01-05T01:28:13.634Z,2.26
2019-01-05T01:31:08.057Z,2.23
2019-01-05T01:34:13.045Z,2.21
2019-01-05T01:37:01.804Z,2.22
2019-01-05T01:39:55.998Z,2.14
2019-01-05T01:42:48.843Z,2.19
2019-01-05T01:45:32.400Z,2.12
2019-01-05T01:48:23.098Z,2.24
2019-01-05T01:51:13.745Z,2.20
2019-01-05T01:54:11.240Z,2.16
2019-01-05T01:57:02.496Z,2.08
2019-01-05T02:00:35.203Z,2.04
2019-01-05T02:03:18.979Z,2.16
2019-01-05T02:06:24.744Z,2.14
2019-01-05T02:09:15.931Z,2.17
2019-01-05T02:12:18.805Z,2.11
2019-01-05T02:15:23.825Z,2.17
2019-01-05T02:18:54.798Z,2.14
2019-01-05T02:22:28.215Z,2.25
2019-01-05T02:26:41.174Z,2.28
2019-01-05T02:30:25.493Z,2.25
2019-01-05T02:34:15.983Z,2.28
2019-01-05T02:38:12.575Z,2.22
2019-01-05T02:41:58.194Z,2.20
2019-01-05T02:46:22.329Z,2.30
2019-01-05T02:50:18.047Z,2.25
2019-01-05T02:54:01.396Z,2.34
2019-01-05T02:57:48.070Z,2.41
2019-01-05T03:01:31.968Z,2.23
2019-01-05T03:05:00.300Z,2.29
2019-01-05T03:09:09.621Z,2.29
2019-01-05T03:13:02.052Z,2.31
2019-01-05T03:16:58.679Z,2.27
2019-01-05T03:20:46.462Z,2.29
2019-01-05T03:24:37.836Z,2.22
2019-01-05T03:28:43.988Z,2.30
2019-01-05T03:33:03.401Z,2.29
2019-01-05T03:37:09.983Z,2.39
2019-01-05T03:41:06.038Z,2.30
2019-01-05T03:44:53.310Z,2.32
2019-01-05T03:48:55.298Z,2.37
2019-01-05T03:53:10.830Z,2.38
2019-01-05T03:57:00.764Z,2.31
2019-01-05T04:00:33.176Z,2.30
2019-01-05T04:04:36.602Z,2.26
2019-01-05T04:08:21.960Z,2.26
2019-01-05T04:12:50.753Z,2.22
2019-01-05T04:16:19.249Z,2.28
2019-01-05T04:20:00.174Z,2.26
2019-01-05T04:24:18.203Z,2.22
2019-01-05T04:28:07.658Z,2.22
2019-01-05T04:32:19.192Z,2.16
2019-01-05T04:35:40.725Z,2.10
2019-01-05T04:39:30.671Z,2.24
2019-01-05T04:43:04.277Z,2.15
2019-01-05T04:47:00.754Z,2.16
2019-01-05T04:50:45.010Z,2.12
2019-01-05T04:55:19.178Z,2.11
2019-01-05T04:59:20.551Z,2.15
2019-01-05T05:03:07.557Z,2.14
2019-01-05T05:07:06.151Z,2.15
2019-01-05T05:10:56.019Z,2.26
2019-01-05T05:14:36.610Z,2.19
2019-01-05T05:18:15.027Z,2.26
2019-01-05T05:22:01.502Z,2.08
2019-01-05T05:26:06.622Z,2.14
2019-01-05T05:29:57.686Z,2.08
2019-01-05T05:33:42.931Z,2.06
2019-01-05T05:37:26.190Z,2.06
2019-01-05T05:41:31.990Z,2.08
2019-01-05T05:45:23.284Z,2.07
2019-01-05T05:49:08.615Z,2.23
2019-01-05T05:53:16.616Z,2.28
2019-01-05T05:56:49.154Z,2.19
2019-01-05T06:00:22.625Z,2.30
2019-01-05T06:03:57.185Z,2.25
2019-01-05T06:08:00.479Z,2.25
2019-01-05T06:12:20.353Z,2.11
2019-01-05T06:16:12.618Z,2.03
2019-01-05T06:20:28.868Z,1.91
2019-01-05T06:24:27.558Z,1.86
2019-01-05T06:28:03.674Z,1.75
2019-01-05T06:32:02.757Z,1.68
2019-01-05T06:35:41.782Z,1.70
2019-01-05T06:39:54.712Z,1.55
2019-01-05T06:43:46.217Z,1.40
2019-01-05T06:47:28.150Z,1.37
2019-01-05T06:51:21.724Z,1.37
2019-01-05T06:55:20.122Z,1.36
2019-01-05T06:59:09.957Z,1.27
2019-01-05T07:03:06.956Z,1.35
2019-01-05T07:07:03.519Z,1.43
2019-01-05T07:10:41.186Z,1.38
2019-01-05T07:14:31.516Z,1.45
2019-01-05T07:18:33.434Z,1.34
2019-01-05T07:22:29.247Z,1.46
2019-01-05T07:26:26.305Z,1.45
2019-01-05T07:30:07.573Z,1.53
2019-01-05T07:34:00.472Z,1.36
2019-01-05T07:38:05.026Z,1.41
2019-01-05T07:42:06.367Z,1.32
2019-01-05T07:45:48.265Z,1.29
2019-01-05T07:49:35.045Z,1.44
2019-01-05T07:53:47.100Z,1.30
2019-01-05T07:57:35.271Z,1.43
2019-01-05T08:01:56.132Z,1.38
2019-01-05T08:05:33.615Z,1.52
2019-01-05T08:09:20.143Z,1.36
2019-01-05T08:13:00.840Z,1.44
2019-01-05T08:17:00.697Z,1.41
2019-01-05T08:20:41.646Z,1.42
2019-01-05T08:24:17.282Z,1.38
2019-01-05T08:28:14.759Z,1.37
2019-01-05T08:32:21.049Z,1.49
2019-01-05T08:36:08.044Z,1.51
2019-01-05T08:40:03.635Z,1.51
2019-01-05T08:43:54.630Z,1.44
2019-01-05T08:48:05.908Z,1.41
2019-01-05T08:51:46.065Z,1.49
2019-01-05T08:55:46.339Z,1.38
2019-01-05T08:59:53.612Z,1.41
2019-01-05T09:03:38.489Z,1.48
2019-01-05T09:07:38.938Z,1.51
2019-01-05T09:11:20.368Z,1.43
2019-01-05T09:15:18.986Z,1.52
2019-01-05T09:19:22.241Z,1.64
2019-01-05T09:23:04.272Z,1.69
2019-01-05T09:27:01.725Z,1.57
2019-01-05T09:31:20.069Z,1.63
2019-01-05T09:35:27.457Z,1.82
2019-01-05T09:39:25.190Z,1.67
2019-01-05T09:43:34.185Z,1.76
2019-01-05T09:47:28.403Z,1.84
2019-01-05T09:51:24.476Z,1.90
2019-01-05T09:55:16.265Z,1.88
2019-01-05T09:59:09.340Z,1.85
2019-01-05T10:03:00.936Z,1.81
2019-01-05T10:07:09.476Z,1.70
2019-01-05T10:11:05.145Z,1.62
2019-01-05T10:14:38.281Z,1.52
2019-01-05T10:18:33.697Z,1.62
2019-01-05T10:22:20.484Z,1.60
2019-01-05T10:26:24.847Z,1.75
2019-01-05T10:30:18.474Z,1.73
2019-01-05T10:34:04.220Z,1.82
2019-01-05T10:38:01.138Z,1.65
2019-01-05T10:41:58.277Z,1.79
2019-01-05T10:45:41.974Z,1.72
2019-01-05T10:49:31.839Z,1.73
2019-01-05T10:53:50.253Z,1.61
2019-01-05T10:57:38.986Z,1.80
2019-01-05T11:01:21.512Z,1.82
2019-01-05T11:05:16.357Z,1.95
2019-01-05T11:08:57.194Z,1.94
2019-01-05T11:13:20.670Z,1.92
2019-01-05T11:17:10.671Z,1.97
2019-01-05T11:21:12.517Z,1.97
2019-01-05T11:25:32.345Z,1.91
2019-01-05T11:29:25.963Z,1.92
2019-01-05T11:33:24.424Z,1.81
2019-01-05T11:37:08.148Z,1.84
2019-01-05T11:41:03.806Z,1.89
2019-01-05T11:44:30.923Z,1.88
2019-01-05T11:48:40.455Z,1.81
2019-01-05T11:52:45.320Z,1.91
2019-01-05T11:57:16.228Z,2.11
2019-01-05T12:01:01.356Z,2.00
2019-01-05T12:05:28.828Z,1.99
2019-01-05T12:09:37.354Z,1.95
2019-01-05T12:13:28.127Z,1.94
2019-01-05T12:17:26.591Z,1.96
2019-01-05T12:21:13.124Z,1.99
2019-01-05T12:25:38.299Z,1.96
2019-01-05T12:29:40.682Z,2.02
2019-01-05T12:33:31.650Z,2.02
2019-01-05T12:37:21.513Z,1.98
2019-01-05T12:41:07.086Z,1.89
2019-01-05T12:44:55.526Z,1.98
2019-01-05T12:49:04.375Z,2.11
2019-01-05T12:52:34.614Z,2.08
2019-01-05T12:56:06.744Z,2.05
2019-01-05T13:00:18.766Z,2.18
2019-01-05T13:04:36.267Z,2.24
2019-01-05T13:08:10.039Z,2.15
2019-01-05T13:11:36.544Z,2.26
2019-01-05T13:15:39.698Z,2.32
2019-01-05T13:19:42.215Z,2.29
2019-01-05T13:24:05.898Z,2.30
2019-01-05T13:28:04.680Z,2.30
2019-01-05T13:32:09.587Z,2.23
2019-01-05T13:35:50.059Z,2.24
2019-01-05T13:40:07.817Z,2.19
2019-01-05T13:43:42.468Z,2.27
2019-01-05T13:47:33.483Z,2.20
2019-01-05T13:50:58.978Z,2.20
2019-01-05T13:53:59.112Z,2.16
2019-01-05T13:56:54.725Z,2.18
2019-01-05T14:00:02.418Z,2.17
2019-01-05T14:02:50.865Z,2.16
2019-01-05T14:05:40.228Z,2.12
2019-01-05T14:08:42.162Z,2.18
2019-01-05T14:11:47.534Z,2.16
2019-01-05T14:14:55.550Z,2.21
2019-01-05T14:17:47.828Z,2.22
2019-01-05T14:20:38.187Z,2.22
2019-01-05T14:23:37.307Z,2.21
2019-01-05T14:26:33.911Z,2.28
2019-01-05T14:29:30.080Z,2.22
2019-01-05T14:32:20.105Z,2.26
2019-01-05T14:35:08.561Z,2.21
2019-01-05T14:38:01.948Z,2.31
2019-01-05T14:41:01.050Z,2.21
2019-01-05T14:43:51.050Z,2.28
2019-01-05T14:46:59.685Z,2.24
2019-01-05T14:49:48.357Z,2.25
2019-01-05T14:52:37.094Z,2.35
2019-01-05T14:55:25.038Z,2.26
2019-01-05T14:58:13.532Z,2.28
2019-01-05T15:01:06.367Z,2.27
2019-01-05T15:04:02.256Z,2.34
2019-01-05T15:06:48.397Z,2.37
2019-01-05T15:09:37.171Z,2.39
2019-01-05T15:12:26.434Z,2.34
2019-01-05T15:15:25.585Z,2.37
2019-01-05T15:18:16.462Z,2.32
2019-01-05T15:21:05.187Z,2.40
2019-01-05T15:23:46.413Z,2.39
2019-01-05T15:26:39.050Z,2.35
2019-01-05T15:29:27.708Z,2.41
2019-01-05T15:32:23.495Z,2.43
2019-01-05T15:35:06.691Z,2.37
2019-01-05T15:37:55.818Z,2.38
2019-01-05T15:40:49.124Z,2.51
2019-01-05T15:43:40.066Z,2.47
2019-01-05T15:46:42.707Z,2.44
2019-01-05T15:49:29.203Z,2.57
2019-01-05T15:52:19.423Z,2.55
2019-01-05T15:55:10.626Z,2.50
2019-01-05T15:57:59.315Z,2.45
2019-01-05T16:00:55.227Z,2.51
2019-01-05T16:03:43.880Z,2.53
2019-01-05T16:06:28.401Z,2.53
2019-01-05T16:09:33.375Z,2.51
2019-01-05T16:12:32.265Z,2.48
2019-01-05T16:15:21.030Z,2.52
2019-01-05T16:18:14.127Z,2.57
2019-01-05T16:21:03.261Z,2.58
2019-01-05T16:23:51.449Z,2.58
2019-01-05T16:26:59.448Z,2.58
2019-01-05T16:29:47.975Z,2.55
2019-01-05T16:32:52.628Z,2.65
2019-01-05T16:35:41.113Z,2.67
2019-01-05T16:38:46.278Z,2.69
2019-01-05T16:41:30.970Z,2.69
2019-01-05T16:44:19.663Z,2.60
2019-01-05T16:47:08.396Z,2.69
2019-01-05T16:50:08.254Z,2.75
2019-01-05T16:53:13.466Z,2.70
2019-01-05T16:56:03.503Z,2.81
2019-01-05T16:59:09.624Z,2.79
2019-01-05T17:02:05.003Z,2.67
2019-01-05T17:05:13.573Z,2.76
2019-01-05T17:08:03.582Z,2.82
2019-01-05T17:10:52.585Z,2.87
2019-01-05T17:13:40.808Z,2.85
2019-01-05T17:16:30.868Z,2.83
2019-01-05T17:19:19.803Z,2.93
2019-01-05T17:22:25.076Z,2.92
2019-01-05T17:25:13.077Z,2.84
2019-01-05T17:28:01.848Z,2.83
2019-01-05T17:30:50.919Z,2.88
2019-01-05T17:33:55.881Z,2.91
2019-01-05T17:36:48.762Z,2.79
2019-01-05T17:39:45.659Z,2.84
2019-01-05T17:42:47.873Z,2.71
2019-01-05T17:45:36.347Z,2.78
2019-01-05T17:48:34.830Z,2.80
2019-01-05T17:51:33.436Z,2.79
2019-01-05T17:54:23.428Z,2.82
2019-01-05T17:57:13.828Z,2.82
2019-01-05T18:00:15.806Z,2.81
2019-01-05T18:03:18.019Z,2.72
2019-01-05T18:06:11.411Z,2.79
2019-01-05T18:09:13.920Z,2.77
2019-01-05T18:12:02.666Z,2.83
2019-01-05T18:15:04.817Z,2.88
2019-01-05T18:17:53.955Z,2.84
2019-01-05T18:20:47.650Z,2.81
2019-01-05T18:23:36.333Z,2.85
2019-01-05T18:26:41.788Z,2.95
2019-01-05T18:29:32.771Z,2.94
2019-01-05T18:32:32.149Z,2.78
2019-01-05T18:35:20.457Z,2.85
2019-01-05T18:38:08.715Z,2.78
2019-01-05T18:40:57.465Z,2.77
2019-01-05T18:43:46.134Z,2.83
2019-01-05T18:46:34.810Z,2.82
2019-01-05T18:49:22.949Z,2.83
2019-01-05T18:52:13.081Z,2.72
2019-01-05T18:55:01.737Z,2.76
2019-01-05T18:58:04.819Z,2.79
2019-01-05T19:01:01.159Z,2.87
2019-01-05T19:04:03.190Z,2.90
2019-01-05T19:06:52.178Z,2.82
2019-01-05T19:09:55.433Z,2.90
2019-01-05T19:12:56.692Z,2.93
2019-01-05T19:15:45.418Z,2.99
2019-01-05T19:18:33.826Z,2.96
2019-01-05T19:21:26.967Z,2.98
2019-01-05T19:24:16.969Z,3.07
2019-01-05T19:27:05.359Z,3.14
2019-01-05T19:30:05.607Z,3.03
2019-01-05T19:33:01.531Z,3.00
2019-01-05T19:35:58.734Z,3.02
2019-01-05T19:39:07.228Z,3.01
2019-01-05T19:42:04.201Z,2.98
2019-01-05T19:44:57.034Z,2.95
2019-01-05T19:47:58.703Z,3.01
2019-01-05T19:50:47.383Z,3.15
2019-01-05T19:53:37.253Z,3.08
2019-01-05T19:56:27.092Z,3.01
2019-01-05T19:59:18.846Z,3.13
2019-01-05T20:02:21.148Z,3.06
2019-01-05T20:05:13.945Z,3.09
2019-01-05T20:08:13.622Z,3.16
2019-01-05T20:11:22.682Z,3.07
2019-01-05T20:14:15.806Z,3.00
2019-01-05T20:17:18.051Z,2.89
2019-01-05T20:20:14.751Z,2.87
2019-01-05T20:23:13.657Z,3.13
2019-01-05T20:26:02.988Z,3.02
2019-01-05T20:28:56.505Z,2.99
2019-01-05T20:31:48.197Z,3.01
2019-01-05T20:34:41.283Z,2.96
2019-01-05T20:37:29.687Z,3.02
2019-01-05T20:40:29.042Z,3.05
2019-01-05T20:43:19.335Z,3.03
2019-01-05T20:46:15.798Z,2.98
2019-01-05T20:49:04.739Z,2.98
2019-01-05T20:51:53.202Z,2.96
2019-01-05T20:54:43.500Z,2.90
2019-01-05T20:57:48.495Z,2.87
2019-01-05T21:00:47.263Z,2.91
2019-01-05T21:03:35.392Z,2.96
2019-01-05T21:06:24.137Z,3.13
2019-01-05T21:09:23.621Z,2.97
2019-01-05T21:12:12.770Z,2.96
2019-01-05T21:15:04.673Z,3.03
2019-01-05T21:17:53.660Z,3.05
2019-01-05T21:20:41.922Z,3.03
2019-01-05T21:23:24.532Z,3.16
2019-01-05T21:26:13.815Z,3.07
2019-01-05T21:29:24.005Z,3.14
2019-01-05T21:32:20.251Z,3.25
2019-01-05T21:35:21.826Z,3.19
2019-01-05T21:38:10.206Z,3.13
2019-01-05T21:41:02.460Z,3.16
2019-01-05T21:43:51.320Z,3.10
2019-01-05T21:46:44.192Z,3.12
2019-01-05T21:49:34.277Z,3.21
2019-01-05T21:52:22.703Z,3.14
2019-01-05T21:55:31.265Z,3.13
2019-01-05T21:58:31.730Z,3.14
2019-01-05T22:01:17.260Z,3.04
2019-01-05T22:04:06.254Z,3.14
2019-01-05T22:07:01.993Z,3.07
2019-01-05T22:09:59.413Z,3.16
2019-01-05T22:12:58.834Z,3.18
2019-01-05T22:15:47.956Z,3.24
2019-01-05T22:18:38.184Z,3.22
2019-01-05T22:21:31.730Z,3.20
2019-01-05T22:24:40.084Z,3.23
2019-01-05T22:27:28.664Z,3.33
2019-01-05T22:30:18.969Z,3.37
2019-01-05T22:33:24.205Z,3.31
2019-01-05T22:36:14.514Z,3.32
2019-01-05T22:39:03.264Z,3.35
2019-01-05T22:41:56.388Z,3.35
2019-01-05T22:44:44.961Z,3.38
2019-01-05T22:47:38.543Z,3.44
2019-01-05T22:50:40.988Z,3.43
2019-01-05T22:53:38.966Z,3.44
2019-01-05T22:56:32.902Z,3.43
2019-01-05T22:59:23.999Z,3.55
2019-01-05T23:02:27.112Z,3.53
2019-01-05T23:05:23.745Z,3.49
2019-01-05T23:08:14.970Z,3.51
2019-01-05T23:11:13.271Z,3.54
2019-01-05T23:14:02.446Z,3.59
2019-01-05T23:17:01.051Z,3.44
2019-01-05T23:19:45.874Z,3.47
2019-01-05T23:22:36.829Z,3.47
2019-01-05T23:25:27.516Z,3.48
2019-01-05T23:28:17.636Z,3.48
2019-01-05T23:31:13.680Z,3.48
2019-01-05T23:34:13.019Z,3.38
2019-01-05T23:37:01.729Z,3.51
2019-01-05T23:39:49.809Z,3.42
2019-01-05T23:42:50.364Z,3.42
2019-01-05T23:45:38.998Z,3.48
2019-01-05T23:48:28.006Z,3.40
2019-01-05T23:51:17.014Z,3.41
2019-01-05T23:54:05.490Z,3.43
2019-01-05T23:57:02.264Z,3.40
2019-01-05T23:59:51.567Z,3.40
